createdAt,value
2023-11-08T00:04:24.365Z,13.45
2023-11-08T00:09:29.476Z,13.75
2023-11-08T00:14:35.127Z,13.95
2023-11-08T00:19:42.723Z,12.60
2023-11-08T00:24:47.841Z,12.35
2023-11-08T00:29:52.918Z,11.18
2023-11-08T00:35:00.635Z,11.35
2023-11-08T00:40:05.733Z,10.48
2023-11-08T00:45:11.751Z,9.40
2023-11-08T00:50:19.448Z,8.73
2023-11-08T00:55:24.916Z,9.23
2023-11-08T01:00:29.943Z,8.32
2023-11-08T01:05:37.758Z,7.97
2023-11-08T01:10:44.513Z,8.63
2023-11-08T01:15:49.572Z,7.80
2023-11-08T01:20:59.357Z,8.50
2023-11-08T01:26:06.328Z,7.70
2023-11-08T01:31:11.377Z,8.15
2023-11-08T01:36:19.085Z,7.93
2023-11-08T01:41:24.173Z,6.78
2023-11-08T01:46:29.530Z,7.18
2023-11-08T01:51:37.250Z,6.72
2023-11-08T01:56:42.656Z,8.05
2023-11-08T02:01:48.391Z,6.63
2023-11-08T02:06:56.384Z,5.78
2023-11-08T02:12:03.202Z,5.25
2023-11-08T02:17:08.423Z,5.78
2023-11-08T02:22:16.273Z,5.28
2023-11-08T02:27:23.903Z,5.65
2023-11-08T02:32:28.987Z,4.68
2023-11-08T02:37:34.715Z,3.80
2023-11-08T02:42:42.873Z,4.00
2023-11-08T02:47:48.761Z,4.32
2023-11-08T02:52:53.800Z,3.42
2023-11-08T02:58:01.925Z,3.63
2023-11-08T03:03:07.054Z,3.08
2023-11-08T03:08:12.095Z,3.88
2023-11-08T03:13:19.889Z,3.80
2023-11-08T03:18:24.924Z,4.63
2023-11-08T03:23:31.006Z,4.70
2023-11-08T03:28:38.666Z,4.88
2023-11-08T03:33:43.724Z,5.32
2023-11-08T03:38:49.056Z,5.53
2023-11-08T03:43:57.025Z,5.45
2023-11-08T03:49:02.992Z,4.80
2023-11-08T03:54:08.319Z,5.28
2023-11-08T03:59:15.952Z,4.65
2023-11-08T04:04:21.076Z,4.55
2023-11-08T04:09:26.120Z,4.43
2023-11-08T04:14:33.737Z,5.18
2023-11-08T04:19:38.939Z,5.25
2023-11-08T04:24:44.925Z,5.85
2023-11-08T04:29:52.737Z,4.85
2023-11-08T04:34:57.788Z,4.78
2023-11-08T04:40:02.870Z,6.43
2023-11-08T04:45:12.120Z,8.50
2023-11-08T04:50:17.286Z,9.30
2023-11-08T04:55:22.363Z,9.32
2023-11-08T05:00:30.304Z,8.93
2023-11-08T05:05:35.756Z,8.98
2023-11-08T05:10:40.776Z,9.48
2023-11-08T05:15:48.431Z,9.50
2023-11-08T05:20:53.458Z,9.70
2023-11-08T05:25:58.618Z,9.48
2023-11-08T05:31:06.383Z,11.20
2023-11-08T05:36:11.725Z,9.20
2023-11-08T05:41:22.409Z,9.70
2023-11-08T05:46:30.027Z,9.25
2023-11-08T05:51:35.223Z,8.05
2023-11-08T05:56:40.263Z,8.93
2023-11-08T06:01:48.394Z,9.70
2023-11-08T06:06:53.516Z,8.70
2023-11-08T06:11:58.734Z,8.90
2023-11-08T06:17:06.512Z,8.10
2023-11-08T06:22:11.628Z,7.72
2023-11-08T06:27:16.679Z,8.10
2023-11-08T06:32:24.285Z,8.52
2023-11-08T06:37:29.574Z,8.90
2023-11-08T06:42:34.618Z,8.45
2023-11-08T06:47:42.278Z,8.85
2023-11-08T06:52:47.651Z,9.32
2023-11-08T06:57:52.721Z,9.93
2023-11-08T07:03:00.901Z,11.63
2023-11-08T07:08:06.040Z,7.32
2023-11-08T07:13:11.128Z,12.70
2023-11-08T07:18:18.956Z,7.07
2023-11-08T07:23:24.251Z,7.20
2023-11-08T07:28:29.256Z,7.40
2023-11-08T07:33:36.941Z,9.10
2023-11-08T07:38:42.054Z,7.20
2023-11-08T07:43:47.090Z,6.85
2023-11-08T07:48:57.356Z,9.57
2023-11-08T07:54:02.784Z,7.30
2023-11-08T07:59:08.791Z,7.05
2023-11-08T08:04:19.432Z,5.97
2023-11-08T08:09:26.177Z,5.68
2023-11-08T08:14:31.245Z,3.60
2023-11-08T08:19:38.917Z,3.10
2023-11-08T08:24:44.323Z,1.88
2023-11-08T08:29:49.446Z,1.48
2023-11-08T08:34:58.130Z,5.32
2023-11-08T08:40:06.940Z,2.90
2023-11-08T08:45:12.693Z,1.50
2023-11-08T08:50:20.390Z,2.20
2023-11-08T08:55:26.277Z,2.45
2023-11-08T09:00:31.712Z,1.90
2023-11-08T09:05:39.412Z,2.90
2023-11-08T09:10:45.292Z,5.45
2023-11-08T09:15:50.320Z,1.73
2023-11-08T09:20:58.453Z,3.13
2023-11-08T09:26:03.777Z,2.53
2023-11-08T09:31:09.698Z,2.30
2023-11-08T09:36:18.307Z,2.00
2023-11-08T09:41:24.339Z,2.28
2023-11-08T09:46:29.836Z,2.45
2023-11-08T09:51:38.789Z,1.90
2023-11-08T09:56:47.267Z,15.23
2023-11-08T10:01:53.194Z,21.65
2023-11-08T10:07:01.047Z,7.38
2023-11-08T10:12:09.597Z,2.00
2023-11-08T10:17:31.954Z,2.38
2023-11-08T10:22:43.289Z,1.73
2023-11-08T10:28:05.119Z,1.70
2023-11-08T10:33:13.437Z,1.55
2023-11-08T10:38:23.419Z,1.55
2023-11-08T10:48:33.249Z,1.10
2023-11-08T10:53:41.302Z,1.13
2023-11-08T10:58:47.741Z,2.40
2023-11-08T11:03:53.632Z,1.23
2023-11-08T11:09:01.686Z,1.45
2023-11-08T11:14:14.390Z,1.25
2023-11-08T11:19:21.191Z,1.05
2023-11-08T11:24:44.549Z,2.97
2023-11-08T11:29:50.903Z,1.90
2023-11-08T11:34:55.926Z,1.27
2023-11-08T11:40:20.103Z,2.17
2023-11-08T11:45:25.139Z,1.48
2023-11-08T11:50:30.448Z,1.60
2023-11-08T11:55:38.083Z,2.63
2023-11-08T12:00:43.187Z,8.75
2023-11-08T12:05:48.421Z,1.38
2023-11-08T12:11:17.886Z,1.17
2023-11-08T12:16:23.722Z,1.08
2023-11-08T12:21:30.052Z,1.10
2023-11-08T12:26:37.695Z,1.20
2023-11-08T12:31:42.756Z,1.75
2023-11-08T12:36:48.987Z,1.10
2023-11-08T12:41:58.323Z,1.20
2023-11-08T12:47:10.116Z,0.95
2023-11-08T12:52:22.271Z,1.02
2023-11-08T12:57:33.225Z,1.38
2023-11-08T13:02:38.604Z,3.10
2023-11-08T13:07:44.251Z,1.77
2023-11-08T13:12:51.925Z,1.38
2023-11-08T13:17:56.969Z,2.50
2023-11-08T13:23:03.217Z,2.30
2023-11-08T13:28:11.487Z,2.28
2023-11-08T13:33:16.586Z,7.22
2023-11-08T13:38:21.624Z,69.18
2023-11-08T13:43:29.690Z,78.22
2023-11-08T13:48:35.569Z,12.18
2023-11-08T13:53:41.425Z,9.15
2023-11-08T13:58:50.786Z,2.50
2023-11-08T14:03:55.862Z,2.90
2023-11-08T14:09:01.270Z,13.15
2023-11-08T14:14:09.854Z,7.13
2023-11-08T14:19:14.988Z,29.60
2023-11-08T14:24:20.052Z,13.13
2023-11-08T14:29:33.786Z,7.50
2023-11-08T14:34:44.313Z,7.82
2023-11-08T14:39:51.463Z,4.53
2023-11-08T14:44:59.134Z,6.15
2023-11-08T14:50:04.196Z,10.98
2023-11-08T14:55:09.990Z,14.23
2023-11-08T15:00:18.582Z,16.17
2023-11-08T15:05:24.348Z,21.52
2023-11-08T15:10:29.469Z,12.38
2023-11-08T15:15:37.185Z,9.73
2023-11-08T15:20:42.247Z,9.32
2023-11-08T15:25:47.381Z,5.25
2023-11-08T15:30:55.520Z,5.38
2023-11-08T15:36:00.622Z,8.27
2023-11-08T15:41:05.803Z,6.78
2023-11-08T15:46:13.493Z,9.85
2023-11-08T15:51:18.708Z,17.35
2023-11-08T15:56:24.473Z,19.58
2023-11-08T16:01:32.122Z,7.60
2023-11-08T16:06:37.277Z,5.07
2023-11-08T16:11:42.548Z,9.32
2023-11-08T16:16:50.410Z,8.65
2023-11-08T16:21:55.658Z,14.00
2023-11-08T16:27:00.734Z,8.10
2023-11-08T16:32:34.340Z,7.90
2023-11-08T16:37:33.734Z,9.27
2023-11-08T16:42:39.021Z,16.38
2023-11-08T16:47:47.014Z,19.85
2023-11-08T16:52:52.073Z,19.83
2023-11-08T16:57:57.863Z,25.95
2023-11-08T17:03:05.588Z,15.82
2023-11-08T17:08:10.665Z,16.50
2023-11-08T17:13:15.736Z,35.35
2023-11-08T17:18:23.681Z,27.83
2023-11-08T17:23:28.748Z,42.58
2023-11-08T17:28:33.918Z,36.78
2023-11-08T17:33:41.617Z,30.98
2023-11-08T17:38:47.497Z,27.95
2023-11-08T17:43:52.519Z,19.00
2023-11-08T17:49:00.298Z,23.13
2023-11-08T17:54:06.978Z,17.48
2023-11-08T17:59:12.057Z,16.30
2023-11-08T18:04:19.878Z,13.45
2023-11-08T18:09:25.016Z,9.65
2023-11-08T18:14:30.210Z,9.98
2023-11-08T18:19:38.019Z,11.05
2023-11-08T18:24:43.158Z,11.07
2023-11-08T18:29:48.218Z,29.52
2023-11-08T18:34:56.054Z,20.13
2023-11-08T18:40:02.354Z,15.88
2023-11-08T18:45:07.945Z,13.57
2023-11-08T18:50:17.009Z,11.60
2023-11-08T18:55:22.081Z,11.55
2023-11-08T19:00:27.364Z,11.00
2023-11-08T19:05:35.011Z,10.95
2023-11-08T19:10:40.045Z,11.90
2023-11-08T19:15:45.112Z,12.68
2023-11-08T19:20:52.949Z,13.00
2023-11-08T19:25:59.330Z,12.73
2023-11-08T19:31:06.534Z,12.48
2023-11-08T19:36:14.847Z,13.70
2023-11-08T19:41:19.929Z,12.70
2023-11-08T19:46:24.957Z,8.38
2023-11-08T19:51:33.866Z,7.97
2023-11-08T19:56:38.921Z,8.48
2023-11-08T20:01:44.100Z,9.05
2023-11-08T20:06:51.791Z,12.95
2023-11-08T20:11:56.893Z,11.23
2023-11-08T20:17:02.302Z,12.43
2023-11-08T20:22:13.928Z,14.32
2023-11-08T20:27:19.048Z,14.50
2023-11-08T20:32:24.185Z,14.68
2023-11-08T20:37:32.188Z,13.18
2023-11-08T20:42:37.257Z,14.18
2023-11-08T20:47:43.248Z,14.82
2023-11-08T20:52:51.044Z,14.77
2023-11-08T20:57:56.265Z,14.20
2023-11-08T21:03:03.586Z,14.90
2023-11-08T21:08:11.290Z,14.93
2023-11-08T21:13:16.465Z,13.13
2023-11-08T21:18:23.594Z,13.40
2023-11-08T21:23:31.971Z,14.25
2023-11-08T21:28:37.954Z,13.90
2023-11-08T21:33:43.544Z,12.77
2023-11-08T21:38:51.565Z,11.85
2023-11-08T21:43:56.879Z,10.93
2023-11-08T21:49:01.985Z,10.73
2023-11-08T21:54:12.473Z,10.80
2023-11-08T21:59:17.526Z,10.85
2023-11-08T22:04:23.444Z,11.13
2023-11-08T22:09:31.130Z,10.45
2023-11-08T22:14:36.594Z,10.90
2023-11-08T22:19:41.725Z,9.35
2023-11-08T22:24:49.491Z,9.63
2023-11-08T22:29:54.970Z,11.88
2023-11-08T22:34:59.977Z,8.93
2023-11-08T22:40:08.647Z,8.85
2023-11-08T22:45:14.902Z,8.75
2023-11-08T22:50:20.229Z,8.77
2023-11-08T22:55:28.940Z,8.13
2023-11-08T23:00:34.695Z,8.40
2023-11-08T23:05:39.933Z,8.07
2023-11-08T23:10:49.075Z,8.00
2023-11-08T23:15:54.123Z,7.15
2023-11-08T23:20:59.262Z,7.85
2023-11-08T23:26:07.297Z,6.85
2023-11-08T23:31:12.361Z,6.85
2023-11-08T23:36:17.495Z,9.40
2023-11-08T23:41:25.468Z,7.15
2023-11-08T23:46:30.523Z,9.68
2023-11-08T23:51:36.149Z,8.02
2023-11-08T23:56:44.196Z,7.50
